Time;durP1;ratioP1;P1;durP2;ratioP2;P2;SDS_P1;SDS_P2;PMS_P1;PMS_P2;Temp;Humidity;BMP_temperature;BMP_pressure;BME280_temperature;BME280_humidity;BME280_pressure;Samples;Min_cycle;Max_cycle;Signal;HPM_P1;HPM_P2
2022/06/18 00:01:39;;;;;;;6.32;5.20;;;21.40;31.40;;;;;;5076875;28;20402;-76
2022/06/18 00:04:09;;;;;;;11.98;5.85;;;21.40;31.50;;;;;;5072566;28;20463;-76
2022/06/18 00:06:56;;;;;;;7.10;5.35;;;21.40;31.70;;;;;;5054578;28;20387;-77
2022/06/18 00:09:26;;;;;;;10.48;5.40;;;21.30;31.60;;;;;;5074115;28;20392;-77
2022/06/18 00:14:39;;;;;;;7.38;5.80;;;21.20;32.20;;;;;;5093432;28;20421;-77
2022/06/18 00:17:12;;;;;;;6.87;5.37;;;21.20;32.50;;;;;;5093815;28;20421;-76
2022/06/18 00:19:37;;;;;;;8.75;5.53;;;21.10;32.50;;;;;;5075516;28;20773;-80
2022/06/18 00:22:03;;;;;;;10.23;5.20;;;21.20;32.50;;;;;;5078327;28;20770;-75
2022/06/18 00:24:29;;;;;;;11.05;5.13;;;21.20;32.40;;;;;;5075262;28;20399;-75
2022/06/18 00:26:55;;;;;;;10.10;5.22;;;21.20;32.40;;;;;;5070437;28;20779;-77
2022/06/18 00:29:20;;;;;;;10.67;5.20;;;21.20;32.40;;;;;;5071486;28;20452;-76
2022/06/18 00:31:46;;;;;;;7.73;4.80;;;21.10;32.50;;;;;;5071577;28;20390;-77
2022/06/18 00:34:12;;;;;;;7.53;5.25;;;21.10;32.40;;;;;;5071965;28;20387;-77
2022/06/18 00:36:40;;;;;;;8.60;4.93;;;21.20;32.40;;;;;;5054960;28;20404;-77
2022/06/18 00:39:11;;;;;;;10.50;5.00;;;21.20;32.20;;;;;;5077458;28;20490;-77
2022/06/18 00:41:40;;;;;;;8.70;5.53;;;21.10;32.20;;;;;;5055473;28;20899;-76
2022/06/18 00:44:31;;;;;;;14.57;5.60;;;21.20;32.10;;;;;;5074781;28;20387;-78
2022/06/18 00:47:13;;;;;;;8.57;5.30;;;21.10;32.10;;;;;;5060545;28;20426;-77
2022/06/18 00:50:00;;;;;;;10.57;5.18;;;21.00;32.40;;;;;;5085688;28;20395;-78
2022/06/18 00:52:36;;;;;;;5.87;4.63;;;21.00;32.60;;;;;;5071425;28;20809;-79
2022/06/18 00:55:05;;;;;;;6.15;4.65;;;21.00;32.50;;;;;;5080628;28;20394;-78
2022/06/18 00:58:07;;;;;;;10.20;5.40;;;21.00;32.50;;;;;;5095237;28;20452;-78
2022/06/18 01:00:42;;;;;;;8.53;5.03;;;20.90;33.20;;;;;;5041908;28;20454;-76
2022/06/18 01:03:23;;;;;;;8.18;5.07;;;21.00;32.50;;;;;;5075598;28;20382;-77
2022/06/18 01:05:48;;;;;;;8.65;4.60;;;21.00;32.20;;;;;;5088894;28;20461;-78
2022/06/18 01:08:17;;;;;;;7.90;5.38;;;21.00;31.90;;;;;;5053586;28;20820;-75
2022/06/18 01:10:48;;;;;;;7.20;4.90;;;21.00;32.10;;;;;;5087731;28;20449;-77
2022/06/18 01:13:17;;;;;;;8.57;5.00;;;21.00;32.10;;;;;;5083408;28;20394;-78
2022/06/18 01:15:44;;;;;;;7.00;4.90;;;21.00;32.40;;;;;;5080280;28;20389;-76
2022/06/18 01:18:12;;;;;;;8.52;5.10;;;20.90;32.40;;;;;;5095635;28;20401;-77
2022/06/18 01:20:47;;;;;;;9.10;5.20;;;20.90;32.70;;;;;;5092508;28;20763;-76
2022/06/18 01:23:28;;;;;;;5.90;4.75;;;20.90;32.60;;;;;;5090009;28;20386;-76
2022/06/18 01:25:54;;;;;;;7.83;5.70;;;20.90;32.60;;;;;;5096064;28;20389;-76
2022/06/18 01:28:20;;;;;;;6.20;5.10;;;20.90;32.60;;;;;;5095581;28;20401;-78
2022/06/18 01:30:46;;;;;;;6.82;4.85;;;20.80;32.90;;;;;;5095210;28;20380;-77
2022/06/18 01:33:12;;;;;;;12.27;5.47;;;20.80;33.00;;;;;;5076541;28;20802;-77
2022/06/18 01:35:42;;;;;;;5.70;5.00;;;20.80;33.10;;;;;;5055257;28;20386;-76
2022/06/18 01:38:08;;;;;;;5.45;4.50;;;20.80;32.80;;;;;;5055001;28;20487;-77
2022/06/18 01:40:45;;;;;;;9.05;4.97;;;20.80;33.00;;;;;;5036825;28;20386;-77
2022/06/18 01:43:15;;;;;;;10.98;5.53;;;20.80;33.00;;;;;;5054544;28;20745;-77
2022/06/18 01:45:42;;;;;;;7.80;5.00;;;20.70;33.30;;;;;;5059194;28;20453;-75
2022/06/18 01:48:16;;;;;;;16.15;5.70;;;20.70;33.30;;;;;;5083557;28;20410;-76
2022/06/18 01:50:51;;;;;;;8.07;5.45;;;20.60;33.20;;;;;;5075295;28;20380;-76
2022/06/18 01:53:52;;;;;;;9.32;4.60;;;20.60;33.80;;;;;;5075475;28;20388;-76
2022/06/18 01:56:32;;;;;;;10.05;5.20;;;20.50;34.10;;;;;;5021407;28;20395;-74
2022/06/18 01:59:08;;;;;;;6.78;5.07;;;20.70;33.50;;;;;;5074528;28;20394;-76
2022/06/18 02:01:38;;;;;;;8.10;4.88;;;20.70;33.00;;;;;;5074849;28;20666;-74
2022/06/18 02:04:04;;;;;;;9.27;5.20;;;20.60;33.10;;;;;;5056892;28;20380;-74
2022/06/18 02:06:32;;;;;;;7.28;5.07;;;20.60;33.20;;;;;;5074283;28;20786;-75
2022/06/18 02:09:01;;;;;;;8.73;5.03;;;20.50;33.70;;;;;;5074283;28;20391;-73
2022/06/18 02:11:27;;;;;;;10.27;5.30;;;20.50;33.60;;;;;;5093165;28;20439;-74
2022/06/18 02:13:59;;;;;;;8.80;4.93;;;20.50;33.40;;;;;;5088256;28;20892;-75
2022/06/18 02:16:28;;;;;;;5.53;4.80;;;20.50;33.70;;;;;;5077443;28;20403;-74
2022/06/18 02:18:58;;;;;;;7.40;4.90;;;20.40;33.60;;;;;;5074224;28;20376;-75
2022/06/18 02:21:25;;;;;;;8.20;5.00;;;20.40;33.40;;;;;;5073233;28;20710;-75
2022/06/18 02:23:54;;;;;;;8.88;4.30;;;20.40;33.80;;;;;;5056299;28;20562;-76
2022/06/18 02:26:23;;;;;;;5.82;4.75;;;20.50;33.10;;;;;;5074057;28;20376;-74
2022/06/18 02:28:52;;;;;;;8.70;4.88;;;20.40;33.30;;;;;;5073796;28;20778;-75
2022/06/18 02:31:21;;;;;;;6.40;4.50;;;20.30;34.00;;;;;;5074117;28;20383;-75
2022/06/18 02:33:53;;;;;;;5.88;4.57;;;20.30;33.90;;;;;;5074765;28;20380;-75
2022/06/18 02:36:29;;;;;;;10.40;4.63;;;20.30;33.50;;;;;;5074178;28;20383;-76
2022/06/18 02:39:19;;;;;;;7.72;4.68;;;20.40;33.10;;;;;;5074042;28;20383;-75
2022/06/18 02:41:45;;;;;;;7.28;4.57;;;20.30;33.50;;;;;;5057940;28;20444;-75
2022/06/18 02:44:13;;;;;;;7.17;4.10;;;20.40;33.00;;;;;;5075724;28;20425;-76
2022/06/18 02:46:39;;;;;;;9.32;4.60;;;20.30;33.10;;;;;;5085118;28;20387;-76
2022/06/18 02:49:07;;;;;;;8.00;4.40;;;20.30;33.00;;;;;;5057092;28;20760;-76
2022/06/18 02:51:35;;;;;;;8.45;4.20;;;20.20;33.70;;;;;;5061034;28;20467;-76
2022/06/18 02:54:01;;;;;;;7.93;4.07;;;20.30;33.10;;;;;;5078830;28;20441;-76
2022/06/18 02:56:26;;;;;;;8.18;4.45;;;20.30;32.70;;;;;;5077079;28;20404;-76
2022/06/18 02:58:52;;;;;;;5.93;4.20;;;20.20;33.10;;;;;;5076743;28;20451;-76
2022/06/18 03:01:22;;;;;;;7.73;4.63;;;20.10;33.80;;;;;;5074018;28;20923;-75
2022/06/18 03:03:52;;;;;;;7.22;4.00;;;20.10;34.00;;;;;;5056300;28;20391;-76
2022/06/18 03:06:20;;;;;;;6.80;4.40;;;20.10;33.80;;;;;;5074275;28;20406;-76
2022/06/18 03:08:46;;;;;;;7.47;4.45;;;20.10;33.80;;;;;;5073186;28;20397;-76
2022/06/18 03:13:59;;;;;;;4.93;4.13;;;20.10;33.50;;;;;;5074300;28;20875;-76
2022/06/18 03:16:26;;;;;;;7.93;4.40;;;20.00;34.30;;;;;;5055561;28;20412;-76
2022/06/18 03:18:56;;;;;;;6.35;4.47;;;19.90;34.90;;;;;;5073552;28;20740;-76
2022/06/18 03:21:42;;;;;;;6.80;4.00;;;19.90;34.60;;;;;;5073296;28;20441;-76
2022/06/18 03:24:08;;;;;;;6.55;3.97;;;20.10;33.90;;;;;;5073104;28;20882;-75
2022/06/18 03:26:35;;;;;;;6.22;4.00;;;20.00;34.00;;;;;;5074054;28;20482;-75
2022/06/18 03:29:01;;;;;;;5.18;4.05;;;20.10;34.10;;;;;;5073853;28;20392;-75
2022/06/18 03:31:29;;;;;;;7.07;4.40;;;20.00;33.70;;;;;;5072952;28;20887;-76
2022/06/18 03:33:55;;;;;;;6.00;4.17;;;20.00;34.10;;;;;;5054401;28;20388;-75
2022/06/18 03:36:21;;;;;;;7.07;4.27;;;19.90;34.30;;;;;;5072198;28;20403;-76
2022/06/18 03:38:47;;;;;;;6.75;3.92;;;20.10;33.70;;;;;;5076257;28;20461;-76
2022/06/18 03:41:14;;;;;;;9.30;4.28;;;20.10;33.10;;;;;;5088817;28;20897;-76
2022/06/18 03:43:40;;;;;;;6.63;4.20;;;20.00;33.30;;;;;;5073216;28;20384;-76
2022/06/18 03:46:08;;;;;;;10.25;4.00;;;20.10;33.10;;;;;;5073204;28;20395;-76
2022/06/18 03:48:45;;;;;;;6.63;4.22;;;20.00;33.20;;;;;;5072510;28;20864;-76
2022/06/18 03:51:14;;;;;;;6.72;4.00;;;20.10;33.30;;;;;;5071903;28;21146;-76
2022/06/18 03:53:41;;;;;;;6.15;4.00;;;20.10;32.10;;;;;;5054229;28;20395;-76
2022/06/18 03:56:09;;;;;;;5.30;4.30;;;20.20;32.30;;;;;;5072374;28;20403;-76
2022/06/18 03:58:35;;;;;;;6.03;4.20;;;20.20;32.00;;;;;;5072681;28;20384;-77
2022/06/18 04:01:00;;;;;;;5.90;4.20;;;20.30;31.70;;;;;;5056507;28;20487;-77
2022/06/18 04:03:26;;;;;;;6.25;4.30;;;20.40;31.40;;;;;;5071688;28;20371;-76
2022/06/18 04:05:52;;;;;;;7.18;3.78;;;20.40;31.60;;;;;;5084840;28;20851;-75
2022/06/18 04:08:19;;;;;;;8.82;4.45;;;20.30;31.40;;;;;;5092698;28;20381;-76
2022/06/18 04:10:45;;;;;;;8.70;4.10;;;20.30;31.60;;;;;;5061198;28;20460;-77
2022/06/18 04:13:11;;;;;;;12.90;4.40;;;20.40;31.50;;;;;;5071715;28;20387;-76
2022/06/18 04:15:36;;;;;;;7.30;3.88;;;20.40;31.50;;;;;;5075317;28;20462;-76
2022/06/18 04:18:03;;;;;;;7.60;3.90;;;20.50;31.20;;;;;;5057683;28;20403;-75
2022/06/18 04:20:32;;;;;;;5.65;3.70;;;20.50;31.00;;;;;;5065428;28;20403;-76
2022/06/18 04:22:57;;;;;;;8.85;4.00;;;20.60;30.80;;;;;;5074784;28;20787;-76
2022/06/18 04:25:24;;;;;;;6.43;3.80;;;20.60;30.60;;;;;;5083136;28;20388;-77
2022/06/18 04:27:50;;;;;;;5.88;3.55;;;20.60;30.80;;;;;;5060585;28;20409;-76
2022/06/18 04:30:17;;;;;;;4.35;3.63;;;20.60;30.90;;;;;;5075773;28;22100;-76
2022/06/18 04:32:44;;;;;;;8.95;3.83;;;20.70;30.50;;;;;;5059394;28;20465;-76
2022/06/18 04:35:11;;;;;;;9.00;4.50;;;20.70;30.50;;;;;;5075935;28;20400;-76
2022/06/18 04:37:38;;;;;;;7.43;3.83;;;20.70;30.60;;;;;;5077360;28;20497;-76
2022/06/18 04:40:04;;;;;;;5.63;3.60;;;20.70;30.60;;;;;;5072334;28;20403;-76
2022/06/18 04:42:30;;;;;;;4.70;3.40;;;20.80;30.60;;;;;;5057033;28;20871;-78
2022/06/18 04:44:55;;;;;;;6.63;3.80;;;20.80;30.00;;;;;;5072107;28;20433;-78
2022/06/18 04:47:21;;;;;;;5.53;3.60;;;20.90;30.40;;;;;;5068530;28;20486;-79
2022/06/18 04:49:47;;;;;;;6.07;3.90;;;20.90;30.00;;;;;;5072225;28;20767;-78
2022/06/18 04:52:12;;;;;;;6.60;3.70;;;21.00;30.20;;;;;;5073792;28;20426;-79
2022/06/18 04:54:38;;;;;;;4.25;3.50;;;21.00;29.60;;;;;;5080166;28;20498;-78
2022/06/18 04:57:04;;;;;;;4.33;3.77;;;21.00;29.10;;;;;;5055085;28;20439;-79
2022/06/18 04:59:30;;;;;;;8.20;4.00;;;21.10;29.20;;;;;;5065297;28;20477;-78
2022/06/18 05:02:08;;;;;;;5.60;3.80;;;21.20;29.00;;;;;;5076241;28;20467;-77
2022/06/18 05:04:34;;;;;;;4.70;3.90;;;21.30;29.00;;;;;;5073340;28;20938;-76
2022/06/18 05:06:59;;;;;;;11.23;4.57;;;21.30;28.70;;;;;;5075629;28;20401;-78
2022/06/18 05:09:25;;;;;;;5.57;4.10;;;21.40;28.10;;;;;;5073510;28;20880;-78
2022/06/18 05:11:50;;;;;;;5.45;4.00;;;21.50;28.20;;;;;;5075413;28;20396;-78
2022/06/18 05:14:16;;;;;;;4.70;3.70;;;21.50;28.40;;;;;;5076544;28;20435;-78
2022/06/18 05:16:43;;;;;;;4.80;3.70;;;21.50;29.20;;;;;;5074389;28;20407;-77
2022/06/18 05:19:27;;;;;;;5.10;3.83;;;21.60;28.10;;;;;;5076013;28;20409;-77
2022/06/18 05:21:53;;;;;;;5.68;3.90;;;21.70;27.90;;;;;;5077157;28;20394;-78
2022/06/18 05:24:19;;;;;;;5.15;3.13;;;21.70;27.40;;;;;;5083726;28;20396;-78
2022/06/18 05:26:49;;;;;;;4.78;3.80;;;21.80;27.60;;;;;;5065194;28;20410;-77
2022/06/18 05:29:15;;;;;;;8.75;3.80;;;21.90;27.30;;;;;;5070607;28;20384;-79
2022/06/18 05:31:41;;;;;;;8.20;4.10;;;21.90;27.20;;;;;;5085532;28;20399;-78
2022/06/18 05:34:07;;;;;;;6.00;3.87;;;22.00;27.70;;;;;;5076329;28;20449;-78
2022/06/18 05:39:13;;;;;;;10.30;3.87;;;22.20;26.20;;;;;;5037428;28;20434;-80
2022/06/18 05:41:39;;;;;;;5.15;3.88;;;22.20;26.30;;;;;;5044607;28;20389;-80
2022/06/18 05:44:05;;;;;;;6.60;3.73;;;22.30;26.20;;;;;;5026647;28;20464;-79
2022/06/18 05:46:31;;;;;;;6.30;3.67;;;22.40;25.80;;;;;;5039968;28;20414;-81
2022/06/18 05:48:57;;;;;;;5.50;4.20;;;22.50;25.50;;;;;;5044439;28;20900;-81
2022/06/18 05:51:22;;;;;;;6.28;3.80;;;22.60;25.40;;;;;;5042203;28;20407;-78
2022/06/18 05:53:49;;;;;;;7.63;3.90;;;22.70;25.40;;;;;;5037854;28;20450;-78
2022/06/18 05:56:15;;;;;;;6.50;3.75;;;22.80;25.20;;;;;;5039116;28;20403;-79
2022/06/18 05:58:41;;;;;;;8.00;3.60;;;22.90;24.80;;;;;;5053205;28;20409;-78
2022/06/18 06:01:08;;;;;;;5.10;4.00;;;23.00;25.20;;;;;;5042709;28;20484;-80
2022/06/18 06:03:33;;;;;;;3.75;3.45;;;23.00;24.90;;;;;;5047596;28;20486;-82
2022/06/18 06:05:59;;;;;;;7.80;4.10;;;23.20;24.60;;;;;;5051520;28;20428;-80
2022/06/18 06:08:25;;;;;;;8.55;4.82;;;23.20;24.70;;;;;;5048711;28;20556;-80
2022/06/18 06:13:35;;;;;;;5.68;3.88;;;23.50;24.10;;;;;;5051533;28;20429;-79
2022/06/18 06:16:01;;;;;;;8.33;4.07;;;23.50;24.40;;;;;;5054275;28;20411;-77
2022/06/18 06:18:29;;;;;;;6.07;3.53;;;23.60;24.30;;;;;;5050287;28;20407;-77
2022/06/18 06:20:56;;;;;;;7.60;3.90;;;23.50;24.20;;;;;;5050177;28;20444;-76
2022/06/18 06:23:22;;;;;;;9.25;3.88;;;23.70;24.70;;;;;;5055918;28;20489;-77
2022/06/18 06:25:48;;;;;;;5.90;3.53;;;23.80;23.80;;;;;;5058685;28;20407;-77
2022/06/18 06:28:17;;;;;;;6.00;3.95;;;23.90;23.30;;;;;;5052716;28;20391;-77
2022/06/18 06:30:43;;;;;;;7.38;3.97;;;24.00;23.20;;;;;;5051848;28;20411;-77
2022/06/18 06:33:09;;;;;;;8.00;4.32;;;24.10;22.80;;;;;;5058857;28;20414;-76
2022/06/18 06:35:35;;;;;;;6.65;4.28;;;24.10;22.60;;;;;;5057775;28;20430;-76
2022/06/18 06:38:02;;;;;;;6.35;3.90;;;24.50;21.80;;;;;;5063375;28;20424;-77
2022/06/18 06:40:29;;;;;;;7.05;4.70;;;24.50;21.90;;;;;;5059015;28;20396;-76
2022/06/18 06:42:56;;;;;;;13.05;6.50;;;24.50;22.00;;;;;;5054162;28;20409;-77
2022/06/18 06:45:25;;;;;;;7.63;4.60;;;24.50;21.70;;;;;;5051135;28;20451;-77
2022/06/18 06:47:51;;;;;;;11.05;6.03;;;24.60;21.40;;;;;;5027973;28;20461;-78
2022/06/18 06:50:18;;;;;;;11.17;6.00;;;24.80;20.70;;;;;;5049922;28;20371;-76
2022/06/18 06:52:45;;;;;;;10.43;5.90;;;24.80;20.60;;;;;;5062300;28;20439;-78
2022/06/18 06:58:01;;;;;;;8.67;5.87;;;25.10;20.60;;;;;;5036540;28;20521;-77
2022/06/18 07:00:27;;;;;;;10.30;6.05;;;25.20;20.10;;;;;;5020892;28;20442;-78
2022/06/18 07:02:53;;;;;;;19.83;7.80;;;25.30;19.50;;;;;;5041967;28;20401;-78
2022/06/18 07:05:18;;;;;;;11.00;6.50;;;25.30;19.50;;;;;;5047887;28;20444;-77
2022/06/18 07:07:44;;;;;;;8.77;6.50;;;25.40;18.90;;;;;;5048911;28;20431;-79
2022/06/18 07:10:10;;;;;;;12.00;6.20;;;25.70;18.80;;;;;;5041644;28;20891;-77
2022/06/18 07:12:37;;;;;;;11.88;5.75;;;25.90;17.80;;;;;;5050436;28;20868;-80
2022/06/18 07:15:03;;;;;;;7.70;4.75;;;25.80;18.20;;;;;;5043543;28;20924;-78
2022/06/18 07:17:29;;;;;;;14.30;5.43;;;26.00;17.60;;;;;;5024343;28;20932;-77
2022/06/18 07:19:55;;;;;;;6.80;4.30;;;26.00;17.10;;;;;;5044452;28;20495;-77
2022/06/18 07:22:21;;;;;;;8.65;4.75;;;26.00;17.10;;;;;;5040809;28;20405;-77
2022/06/18 07:24:46;;;;;;;8.82;4.70;;;26.00;17.10;;;;;;5040860;28;20807;-79
2022/06/18 07:27:12;;;;;;;11.57;4.43;;;26.20;16.50;;;;;;5042249;28;21060;-76
2022/06/18 07:29:38;;;;;;;13.57;4.85;;;26.30;16.30;;;;;;5036813;28;20847;-77
2022/06/18 07:32:11;;;;;;;7.80;4.13;;;26.50;15.80;;;;;;5048260;28;20769;-75
2022/06/18 07:34:37;;;;;;;5.80;4.00;;;26.50;15.20;;;;;;5043939;28;20426;-77
2022/06/18 07:37:03;;;;;;;6.75;4.35;;;26.50;15.50;;;;;;5047016;28;20440;-77
2022/06/18 07:39:29;;;;;;;11.02;4.50;;;26.70;15.30;;;;;;5030151;28;20453;-78
2022/06/18 07:41:55;;;;;;;8.67;4.33;;;26.60;15.00;;;;;;5045407;28;20402;-74
2022/06/18 07:44:23;;;;;;;7.85;4.03;;;26.60;15.30;;;;;;5045252;28;20405;-77
2022/06/18 07:46:48;;;;;;;8.88;3.80;;;26.80;15.20;;;;;;5026745;28;20401;-80
2022/06/18 07:49:17;;;;;;;9.67;4.10;;;27.00;15.20;;;;;;5041650;28;20600;-80
2022/06/18 07:51:44;;;;;;;8.35;4.47;;;27.00;15.00;;;;;;5048305;28;20398;-81
2022/06/18 07:54:14;;;;;;;6.13;4.07;;;27.00;15.70;;;;;;5040605;28;20407;-81
2022/06/18 07:56:39;;;;;;;11.70;4.20;;;27.10;15.30;;;;;;5043040;28;20415;-79
2022/06/18 07:59:05;;;;;;;8.75;4.28;;;27.10;15.20;;;;;;5043080;28;20418;-79
2022/06/18 08:01:30;;;;;;;6.97;4.30;;;27.10;15.10;;;;;;5043733;28;20407;-77
2022/06/18 08:03:56;;;;;;;10.20;4.17;;;27.20;14.80;;;;;;5038412;28;20403;-77
2022/06/18 08:06:22;;;;;;;12.90;4.88;;;27.50;14.40;;;;;;5040463;28;20469;-79
2022/06/18 08:08:48;;;;;;;12.75;4.20;;;27.40;14.30;;;;;;5037496;28;20395;-81
2022/06/18 08:11:19;;;;;;;11.60;4.90;;;27.40;14.20;;;;;;5036068;28;20402;-77
2022/06/18 08:13:46;;;;;;;9.97;4.10;;;27.50;14.10;;;;;;5047526;28;20422;-76
2022/06/18 08:16:14;;;;;;;8.60;4.30;;;27.60;14.40;;;;;;5041252;28;20824;-77
2022/06/18 08:18:41;;;;;;;8.43;4.20;;;27.80;14.10;;;;;;5040248;28;20411;-80
2022/06/18 08:21:29;;;;;;;11.98;4.57;;;27.80;13.80;;;;;;5049355;28;20402;-81
2022/06/18 08:24:02;;;;;;;11.27;4.88;;;28.00;13.50;;;;;;5032715;28;20459;-78
2022/06/18 08:26:29;;;;;;;9.50;3.90;;;28.00;13.70;;;;;;5041441;28;20399;-78
2022/06/18 08:28:55;;;;;;;14.07;4.70;;;28.00;13.60;;;;;;5041552;28;20423;-78
2022/06/18 08:31:21;;;;;;;8.45;3.90;;;28.10;13.40;;;;;;5031522;28;20394;-78
2022/06/18 08:33:47;;;;;;;11.13;4.90;;;27.90;13.40;;;;;;5055912;28;20373;-78
2022/06/18 08:36:15;;;;;;;7.65;3.92;;;28.00;13.80;;;;;;5057612;28;20388;-76
2022/06/18 08:38:43;;;;;;;6.68;4.00;;;28.00;14.00;;;;;;5032127;28;20412;-79
2022/06/18 08:41:09;;;;;;;11.32;3.80;;;28.00;13.10;;;;;;5024356;28;20433;-76
2022/06/18 08:44:08;;;;;;;11.70;4.20;;;28.20;13.50;;;;;;5040479;28;20412;-78
2022/06/18 08:46:52;;;;;;;13.45;4.05;;;28.20;13.80;;;;;;5032462;28;20880;-77
2022/06/18 08:49:45;;;;;;;9.30;4.40;;;28.30;13.40;;;;;;5041143;28;20433;-77
2022/06/18 08:52:26;;;;;;;9.00;3.60;;;28.30;13.60;;;;;;5038386;28;20498;-76
2022/06/18 08:55:10;;;;;;;10.25;4.20;;;28.30;13.00;;;;;;5029245;28;20403;-74
2022/06/18 08:57:42;;;;;;;15.68;5.05;;;28.40;12.40;;;;;;5033087;28;20407;-79
2022/06/18 09:00:25;;;;;;;12.73;4.55;;;28.60;12.60;;;;;;5035207;28;20405;-77
2022/06/18 09:03:00;;;;;;;10.02;4.25;;;28.70;11.70;;;;;;5039937;28;20421;-77
2022/06/18 09:06:00;;;;;;;6.72;3.80;;;29.00;11.70;;;;;;5043580;28;20385;-76
2022/06/18 09:08:32;;;;;;;9.38;3.85;;;29.00;11.00;;;;;;4959188;28;21238;-77
2022/06/18 09:11:12;;;;;;;12.27;4.43;;;29.20;11.20;;;;;;5046754;28;20438;-78
2022/06/18 09:14:04;;;;;;;11.20;3.70;;;29.30;10.30;;;;;;5039508;28;20433;-80
2022/06/18 09:16:46;;;;;;;16.65;4.40;;;29.30;10.80;;;;;;5057137;28;20410;-77
2022/06/18 09:19:18;;;;;;;12.85;3.90;;;29.30;10.90;;;;;;5053624;28;20407;-74
2022/06/18 09:21:51;;;;;;;12.23;4.88;;;29.50;10.60;;;;;;5041397;28;21029;-76
2022/06/18 09:24:29;;;;;;;8.77;4.00;;;29.40;9.80;;;;;;5053212;28;20421;-78
2022/06/18 09:27:05;;;;;;;15.00;4.10;;;29.40;9.80;;;;;;5046038;28;20419;-77
2022/06/18 09:29:50;;;;;;;12.27;4.22;;;29.40;10.20;;;;;;5055034;28;20406;-77
2022/06/18 09:32:48;;;;;;;11.13;4.25;;;29.60;9.70;;;;;;5039477;28;20842;-77
2022/06/18 09:35:45;;;;;;;12.43;4.20;;;29.70;9.00;;;;;;5056469;28;20405;-82
2022/06/18 09:38:31;;;;;;;17.15;4.15;;;29.90;9.50;;;;;;5058957;28;20408;-79
2022/06/18 09:41:01;;;;;;;13.23;4.00;;;29.90;8.50;;;;;;5052235;28;20419;-80
2022/06/18 09:43:31;;;;;;;13.30;3.90;;;30.10;7.90;;;;;;5064083;28;20406;-78
2022/06/18 09:46:02;;;;;;;12.55;4.20;;;30.20;7.90;;;;;;5063185;28;20390;-80
2022/06/18 09:48:28;;;;;;;14.57;3.87;;;30.10;7.70;;;;;;5037639;28;20426;-81
2022/06/18 09:51:04;;;;;;;12.27;3.83;;;30.10;7.80;;;;;;5051857;28;20410;-81
2022/06/18 09:53:40;;;;;;;8.03;3.90;;;30.30;8.10;;;;;;5052814;28;20725;-80
2022/06/18 09:56:14;;;;;;;13.57;4.20;;;30.30;7.30;;;;;;5014215;28;20409;-79
2022/06/18 09:58:58;;;;;;;18.17;4.90;;;30.40;7.60;;;;;;5049402;28;20424;-78
2022/06/18 10:01:37;;;;;;;10.80;3.92;;;30.60;8.10;;;;;;5048847;28;20401;-79
2022/06/18 10:06:57;;;;;;;13.13;4.68;;;30.70;7.50;;;;;;5047188;28;20913;-76
2022/06/18 10:09:42;;;;;;;12.30;4.20;;;30.90;7.80;;;;;;5037685;28;20421;-76
2022/06/18 10:12:21;;;;;;;14.00;4.10;;;30.90;6.90;;;;;;5035131;28;20911;-74
2022/06/18 10:14:57;;;;;;;14.45;4.45;;;30.90;7.30;;;;;;5050781;28;20825;-76
2022/06/18 10:17:37;;;;;;;10.48;4.20;;;31.00;7.50;;;;;;5041753;28;20407;-78
2022/06/18 10:20:12;;;;;;;19.02;5.03;;;31.00;6.90;;;;;;5035571;28;20398;-77
2022/06/18 10:23:09;;;;;;;12.73;4.45;;;31.10;6.60;;;;;;5037934;28;20985;-78
2022/06/18 10:25:43;;;;;;;13.33;4.60;;;31.10;6.20;;;;;;5038372;28;20913;-75
2022/06/18 10:28:12;;;;;;;12.48;4.50;;;31.00;6.50;;;;;;5028325;28;20492;-80
2022/06/18 10:30:53;;;;;;;11.07;4.50;;;30.90;6.30;;;;;;5041085;28;20748;-82
2022/06/18 10:33:37;;;;;;;14.02;4.10;;;30.90;6.50;;;;;;5022555;28;20434;-77
2022/06/18 10:36:27;;;;;;;13.98;3.80;;;31.10;6.00;;;;;;5036846;28;20415;-78
2022/06/18 10:39:20;;;;;;;10.73;3.85;;;31.30;5.70;;;;;;5023718;28;20457;-76
2022/06/18 10:42:10;;;;;;;16.05;4.28;;;31.30;5.90;;;;;;5042337;28;20420;-78
2022/06/18 10:45:06;;;;;;;13.07;4.75;;;31.30;6.00;;;;;;5039799;28;20453;-75
2022/06/18 10:47:36;;;;;;;11.10;4.55;;;31.40;5.30;;;;;;5037671;28;20402;-77
2022/06/18 10:50:11;;;;;;;11.63;4.30;;;31.50;4.90;;;;;;5039733;28;20406;-77
2022/06/18 10:52:37;;;;;;;10.30;3.88;;;31.50;5.40;;;;;;5022580;28;20410;-78
2022/06/18 10:55:13;;;;;;;17.23;4.28;;;31.70;5.10;;;;;;5021066;28;20406;-78
2022/06/18 10:57:38;;;;;;;13.05;4.60;;;31.80;5.50;;;;;;5037169;28;20398;-77
2022/06/18 11:00:08;;;;;;;14.93;4.33;;;31.70;5.20;;;;;;5040726;28;20792;-78
2022/06/18 11:02:37;;;;;;;13.02;4.00;;;31.90;4.50;;;;;;5045513;28;20407;-77
2022/06/18 11:05:24;;;;;;;10.25;4.60;;;32.00;4.60;;;;;;5045242;28;20422;-80
2022/06/18 11:07:53;;;;;;;11.15;4.32;;;32.20;4.50;;;;;;5038001;28;20853;-74
2022/06/18 11:10:31;;;;;;;15.07;5.00;;;32.30;4.20;;;;;;5036353;28;20835;-75
2022/06/18 11:13:00;;;;;;;13.63;4.13;;;32.30;4.80;;;;;;5021193;28;20405;-76
2022/06/18 11:15:36;;;;;;;11.82;4.70;;;32.20;4.60;;;;;;5029888;28;20845;-75
2022/06/18 11:18:03;;;;;;;19.98;4.70;;;32.20;4.60;;;;;;5037204;28;20813;-76
2022/06/18 11:20:31;;;;;;;13.18;4.20;;;32.30;5.40;;;;;;5036949;28;20772;-75
2022/06/18 11:23:03;;;;;;;12.17;4.60;;;32.40;5.00;;;;;;5031749;28;20406;-77
2022/06/18 11:25:49;;;;;;;14.10;4.05;;;32.40;4.40;;;;;;5031760;28;20403;-76
2022/06/18 11:28:28;;;;;;;17.47;5.23;;;32.70;3.50;;;;;;5029114;28;20439;-73
2022/06/18 11:30:54;;;;;;;13.43;4.72;;;32.70;3.80;;;;;;5035898;28;20530;-75
2022/06/18 11:33:35;;;;;;;19.08;5.50;;;32.80;2.30;;;;;;5037821;28;20406;-74
2022/06/18 11:36:14;;;;;;;12.68;4.78;;;32.70;1.90;;;;;;5026698;28;20405;-80
2022/06/18 11:38:41;;;;;;;15.60;4.75;;;32.70;2.20;;;;;;5048621;22;20868;-77
2022/06/18 11:41:23;;;;;;;13.77;4.28;;;32.80;2.30;;;;;;5030149;28;20425;-76
2022/06/18 11:44:08;;;;;;;18.45;4.50;;;33.10;2.50;;;;;;5036137;28;20426;-78
2022/06/18 11:46:44;;;;;;;16.10;4.35;;;33.30;1.30;;;;;;5031718;28;20417;-76
2022/06/18 11:49:30;;;;;;;13.77;4.40;;;33.20;1.00;;;;;;5037909;28;20765;-76
2022/06/18 11:52:14;;;;;;;12.57;4.65;;;33.30;1.40;;;;;;5012702;28;20415;-77
2022/06/18 11:54:57;;;;;;;12.20;5.10;;;33.30;2.00;;;;;;5032624;28;20782;-77
2022/06/18 11:57:39;;;;;;;13.57;4.75;;;33.60;1.60;;;;;;5035544;28;20425;-76
2022/06/18 12:00:11;;;;;;;12.00;4.50;;;33.80;1.80;;;;;;5013363;28;21123;-77
2022/06/18 12:02:49;;;;;;;17.58;5.35;;;33.60;1.00;;;;;;5018368;28;20459;-78
2022/06/18 12:05:23;;;;;;;15.13;5.07;;;33.80;1.30;;;;;;5034203;28;20412;-77
2022/06/18 12:08:02;;;;;;;14.27;4.18;;;33.90;1.00;;;;;;5037654;28;20410;-77
2022/06/18 12:10:52;;;;;;;47.78;8.27;;;34.00;1.40;;;;;;5025114;28;20481;-78
2022/06/18 12:13:25;;;;;;;28.65;6.05;;;34.00;1.60;;;;;;5039709;28;20449;-80
2022/06/18 12:16:10;;;;;;;8.40;4.00;;;34.20;1.60;;;;;;5021902;28;20413;-79
2022/06/18 12:18:51;;;;;;;15.85;4.60;;;34.10;1.20;;;;;;5039650;28;20506;-79
2022/06/18 12:21:48;;;;;;;19.08;4.10;;;34.10;1.20;;;;;;5019136;28;20401;-79
2022/06/18 12:24:37;;;;;;;15.20;7.60;;;34.50;1.00;;;;;;5013398;28;20431;-79
2022/06/18 12:27:16;;;;;;;24.92;10.77;;;34.50;1.00;;;;;;5024840;28;20405;-79
2022/06/18 12:30:03;;;;;;;18.35;10.45;;;34.50;1.00;;;;;;5054215;28;20398;-78
2022/06/18 12:32:36;;;;;;;12.63;4.20;;;34.50;1.80;;;;;;5020458;28;20403;-78
2022/06/18 12:35:03;;;;;;;14.77;4.30;;;34.60;1.00;;;;;;5038243;28;20514;-78
2022/06/18 12:37:56;;;;;;;12.98;4.35;;;34.50;1.00;;;;;;5018447;28;20435;-77
2022/06/18 12:40:52;;;;;;;12.20;4.20;;;34.50;1.00;;;;;;5036000;28;20399;-77
2022/06/18 12:43:28;;;;;;;15.02;4.90;;;34.50;1.00;;;;;;5020113;28;20508;-81
2022/06/18 12:46:17;;;;;;;15.27;5.30;;;34.70;1.10;;;;;;5033351;28;20431;-80
2022/06/18 12:49:09;;;;;;;19.10;5.30;;;34.80;1.00;;;;;;5036919;28;20422;-77
2022/06/18 12:51:56;;;;;;;17.00;4.70;;;35.00;1.40;;;;;;5029612;28;20407;-81
2022/06/18 12:54:44;;;;;;;12.18;4.50;;;35.10;1.00;;;;;;5020902;28;20474;-80
2022/06/18 12:57:32;;;;;;;15.02;4.85;;;35.30;1.00;;;;;;5017342;28;20439;-80
2022/06/18 13:00:06;;;;;;;13.93;7.50;;;35.10;1.00;;;;;;5019900;28;20438;-80
2022/06/18 13:02:48;;;;;;;18.85;7.68;;;35.00;1.00;;;;;;5038380;28;20470;-80
2022/06/18 13:05:20;;;;;;;15.40;4.28;;;35.10;1.00;;;;;;5017979;28;20396;-80
2022/06/18 13:08:07;;;;;;;10.70;4.57;;;35.20;1.10;;;;;;5026630;28;20409;-79
2022/06/18 13:10:54;;;;;;;13.35;4.20;;;35.40;1.30;;;;;;5022384;28;20470;-80
2022/06/18 13:13:45;;;;;;;15.85;4.80;;;35.50;1.00;;;;;;5038780;28;20409;-79
2022/06/18 13:16:31;;;;;;;17.50;5.22;;;35.50;1.00;;;;;;5021235;28;20409;-79
2022/06/18 13:19:08;;;;;;;19.60;7.75;;;35.90;1.00;;;;;;5019225;28;20409;-79
2022/06/18 13:21:34;;;;;;;14.70;5.65;;;36.40;1.00;;;;;;5022263;28;20791;-79
2022/06/18 13:29:46;;;;;;;9.43;4.78;;;37.10;1.00;;;;;;5046619;28;20421;-79
2022/06/18 13:32:25;;;;;;;17.05;5.50;;;37.60;1.00;;;;;;5047256;28;20570;-78
2022/06/18 13:35:08;;;;;;;10.80;4.50;;;37.80;1.00;;;;;;5055313;28;20394;-76